createdAt,value
2018-05-08T00:00:42.291Z,1015.67
2018-05-08T00:01:41.866Z,1015.71
2018-05-08T00:02:41.887Z,1015.69
2018-05-08T00:03:41.756Z,1015.71
2018-05-08T00:04:41.867Z,1015.69
2018-05-08T00:05:41.860Z,1015.69
2018-05-08T00:06:42.015Z,1015.73
2018-05-08T00:07:41.983Z,1015.67
2018-05-08T00:08:41.790Z,1015.64
2018-05-08T00:09:41.956Z,1015.7
2018-05-08T00:10:42.027Z,1015.66
2018-05-08T00:11:42.052Z,1015.64
2018-05-08T00:12:42.057Z,1015.62
2018-05-08T00:13:41.952Z,1015.63
2018-05-08T00:14:41.731Z,1015.63
2018-05-08T00:15:41.846Z,1015.63
2018-05-08T00:16:42.059Z,1015.6
2018-05-08T00:17:41.982Z,1015.61
2018-05-08T00:18:41.881Z,1015.64
2018-05-08T00:19:41.962Z,1015.6
2018-05-08T00:20:42.045Z,1015.61
2018-05-08T00:21:42.210Z,1015.59
2018-05-08T00:22:41.860Z,1015.58
2018-05-08T00:23:41.874Z,1015.62
2018-05-08T00:24:42.054Z,1015.56
2018-05-08T00:25:41.779Z,1015.61
2018-05-08T00:26:41.901Z,1015.58
2018-05-08T00:27:42.054Z,1015.56
2018-05-08T00:28:42.125Z,1015.54
2018-05-08T00:29:42.107Z,1015.56
2018-05-08T00:30:41.897Z,1015.52
2018-05-08T00:31:42.027Z,1015.53
2018-05-08T00:32:41.941Z,1015.48
2018-05-08T00:33:41.872Z,1015.54
2018-05-08T00:34:42.038Z,1015.53
2018-05-08T00:35:41.916Z,1015.53
2018-05-08T00:36:41.811Z,1015.51
2018-05-08T00:37:41.990Z,1015.49
2018-05-08T00:38:41.810Z,1015.47
2018-05-08T00:39:41.885Z,1015.47
2018-05-08T00:40:41.855Z,1015.47
2018-05-08T00:41:41.993Z,1015.45
2018-05-08T00:42:41.947Z,1015.47
2018-05-08T00:43:42.062Z,1015.46
2018-05-08T00:44:41.926Z,1015.44
2018-05-08T00:45:41.891Z,1015.43
2018-05-08T00:46:42.102Z,1015.44
2018-05-08T00:47:41.821Z,1015.44
2018-05-08T00:48:41.973Z,1015.45
2018-05-08T00:49:42.052Z,1015.41
2018-05-08T00:50:41.886Z,1015.39
2018-05-08T00:51:41.812Z,1015.44
2018-05-08T00:52:41.819Z,1015.43
2018-05-08T00:53:41.990Z,1015.41
2018-05-08T00:54:41.893Z,1015.4
2018-05-08T00:55:41.948Z,1015.4
2018-05-08T00:56:41.807Z,1015.4
2018-05-08T00:57:41.999Z,1015.38
2018-05-08T00:58:41.802Z,1015.37
2018-05-08T00:59:42.146Z,1015.38
2018-05-08T01:00:41.957Z,1015.38
2018-05-08T01:01:41.898Z,1015.38
2018-05-08T01:02:42.074Z,1015.33
2018-05-08T01:03:41.799Z,1015.32
2018-05-08T01:04:41.996Z,1015.39
2018-05-08T01:05:41.981Z,1015.33
2018-05-08T01:06:41.811Z,1015.3
2018-05-08T01:07:41.945Z,1015.32
2018-05-08T01:08:41.862Z,1015.27
2018-05-08T01:09:41.823Z,1015.31
2018-05-08T01:10:41.868Z,1015.31
2018-05-08T01:11:41.970Z,1015.3
2018-05-08T01:12:41.989Z,1015.34
2018-05-08T01:13:42.026Z,1015.32
2018-05-08T01:14:41.865Z,1015.34
2018-05-08T01:15:41.950Z,1015.32
2018-05-08T01:16:41.988Z,1015.31
2018-05-08T01:17:41.896Z,1015.36
2018-05-08T01:18:41.882Z,1015.34
2018-05-08T01:19:41.989Z,1015.38
2018-05-08T01:21:13.912Z,1015.4
2018-05-08T01:21:41.793Z,1015.36
2018-05-08T01:22:41.972Z,1015.37
2018-05-08T01:23:41.836Z,1015.37
2018-05-08T01:24:42.033Z,1015.39
2018-05-08T01:25:41.780Z,1015.39
2018-05-08T01:26:41.958Z,1015.41
2018-05-08T01:27:41.902Z,1015.36
2018-05-08T01:28:42.074Z,1015.37
2018-05-08T01:29:42.122Z,1015.37
2018-05-08T01:30:41.907Z,1015.34
2018-05-08T01:31:42.281Z,1015.33
2018-05-08T01:32:41.941Z,1015.34
2018-05-08T01:33:41.711Z,1015.31
2018-05-08T01:34:41.828Z,1015.27
2018-05-08T01:35:41.900Z,1015.31
2018-05-08T01:36:41.812Z,1015.24
2018-05-08T01:37:42.195Z,1015.25
2018-05-08T01:38:41.880Z,1015.29
2018-05-08T01:39:41.992Z,1015.23
2018-05-08T01:40:42.039Z,1015.23
2018-05-08T01:41:41.763Z,1015.23
2018-05-08T01:42:41.915Z,1015.25
2018-05-08T01:43:41.870Z,1015.2
2018-05-08T01:44:42.002Z,1015.24
2018-05-08T01:45:41.841Z,1015.23
2018-05-08T01:46:41.923Z,1015.24
2018-05-08T01:47:41.976Z,1015.25
2018-05-08T01:48:41.786Z,1015.24
2018-05-08T01:49:41.901Z,1015.26
2018-05-08T01:50:41.837Z,1015.18
2018-05-08T01:51:41.967Z,1015.25
2018-05-08T01:52:41.832Z,1015.27
2018-05-08T01:53:41.993Z,1015.23
2018-05-08T01:54:41.992Z,1015.25
2018-05-08T01:55:41.755Z,1015.26
2018-05-08T01:56:41.864Z,1015.23
2018-05-08T01:57:41.894Z,1015.2
2018-05-08T01:58:41.812Z,1015.16
2018-05-08T01:59:41.949Z,1015.19
2018-05-08T02:00:41.919Z,1015.16
2018-05-08T02:01:41.979Z,1015.18
2018-05-08T02:02:41.859Z,1015.15
2018-05-08T02:03:41.955Z,1015.11
2018-05-08T02:04:41.955Z,1015.13
2018-05-08T02:05:41.856Z,1015.14
2018-05-08T02:06:42.363Z,1015.11
2018-05-08T02:07:41.950Z,1015.12
2018-05-08T02:08:41.900Z,1015.1
2018-05-08T02:09:41.927Z,1015.07
2018-05-08T02:10:41.756Z,1015.03
2018-05-08T02:11:41.860Z,1015.03
2018-05-08T02:12:42.008Z,1015.04
2018-05-08T02:13:41.816Z,1014.99
2018-05-08T02:14:41.894Z,1015.02
2018-05-08T02:15:42.023Z,1015.01
2018-05-08T02:16:41.756Z,1014.98
2018-05-08T02:17:41.787Z,1014.96
2018-05-08T02:18:42.088Z,1014.95
2018-05-08T02:19:42.143Z,1014.94
2018-05-08T02:20:41.922Z,1014.95
2018-05-08T02:21:41.793Z,1014.95
2018-05-08T02:22:41.902Z,1014.98
2018-05-08T02:23:42.007Z,1014.93
2018-05-08T02:24:42.044Z,1014.95
2018-05-08T02:25:41.864Z,1014.92
2018-05-08T02:26:41.908Z,1014.94
2018-05-08T02:27:41.795Z,1014.95
2018-05-08T02:28:41.912Z,1014.92
2018-05-08T02:29:41.837Z,1014.97
2018-05-08T02:30:41.991Z,1014.97
2018-05-08T02:31:41.798Z,1014.97
2018-05-08T02:32:41.760Z,1015.03
2018-05-08T02:33:41.924Z,1014.98
2018-05-08T02:34:41.899Z,1015.03
2018-05-08T02:35:41.806Z,1015
2018-05-08T02:36:41.872Z,1015.01
2018-05-08T02:37:41.975Z,1015.02
2018-05-08T02:38:42.022Z,1014.98
2018-05-08T02:39:41.985Z,1014.96
2018-05-08T02:40:41.979Z,1014.97
2018-05-08T02:41:41.830Z,1014.96
2018-05-08T02:42:41.879Z,1014.94
2018-05-08T02:43:41.817Z,1014.97
2018-05-08T02:44:41.882Z,1014.96
2018-05-08T02:45:41.820Z,1014.96
2018-05-08T02:46:41.917Z,1014.92
2018-05-08T02:47:42.052Z,1014.91
2018-05-08T02:48:41.891Z,1014.93
2018-05-08T02:49:41.911Z,1014.91
2018-05-08T02:50:41.813Z,1014.91
2018-05-08T02:51:41.861Z,1014.93
2018-05-08T02:52:41.925Z,1014.93
2018-05-08T02:53:41.892Z,1014.84
2018-05-08T02:54:41.729Z,1014.89
2018-05-08T02:55:42.008Z,1014.89
2018-05-08T02:56:41.714Z,1014.9
2018-05-08T02:57:41.886Z,1014.86
2018-05-08T02:58:41.938Z,1014.89
2018-05-08T02:59:41.844Z,1014.84
2018-05-08T03:00:41.785Z,1014.9
2018-05-08T03:01:41.934Z,1014.86
2018-05-08T03:02:41.941Z,1014.85
2018-05-08T03:03:41.967Z,1014.86
2018-05-08T03:04:42.022Z,1014.89
2018-05-08T03:05:41.840Z,1014.91
2018-05-08T03:06:42.035Z,1014.88
2018-05-08T03:07:41.974Z,1014.85
2018-05-08T03:08:42.015Z,1014.83
2018-05-08T03:09:41.938Z,1014.79
2018-05-08T03:10:41.943Z,1014.8
2018-05-08T03:11:41.973Z,1014.78
2018-05-08T03:12:41.877Z,1014.8
2018-05-08T03:13:41.896Z,1014.76
2018-05-08T03:14:41.901Z,1014.74
2018-05-08T03:15:42.011Z,1014.77
2018-05-08T03:16:41.688Z,1014.74
2018-05-08T03:17:41.898Z,1014.78
2018-05-08T03:18:41.824Z,1014.78
2018-05-08T03:19:41.891Z,1014.82
2018-05-08T03:20:41.806Z,1014.81
2018-05-08T03:21:42.118Z,1014.74
2018-05-08T03:22:41.777Z,1014.78
2018-05-08T03:23:41.932Z,1014.82
2018-05-08T03:24:41.849Z,1014.81
2018-05-08T03:25:41.980Z,1014.83
2018-05-08T03:26:41.711Z,1014.81
2018-05-08T03:27:41.781Z,1014.79
2018-05-08T03:28:41.812Z,1014.76
2018-05-08T03:29:41.856Z,1014.75
2018-05-08T03:30:41.868Z,1014.8
2018-05-08T03:31:41.942Z,1014.78
2018-05-08T03:32:41.953Z,1014.76
2018-05-08T03:33:41.992Z,1014.72
2018-05-08T03:34:41.806Z,1014.73
2018-05-08T03:35:41.813Z,1014.73
2018-05-08T03:36:41.834Z,1014.73
2018-05-08T03:37:41.992Z,1014.71
2018-05-08T03:38:41.728Z,1014.7
2018-05-08T03:39:41.876Z,1014.71
2018-05-08T03:40:41.936Z,1014.74
2018-05-08T03:41:41.705Z,1014.72
2018-05-08T03:42:41.959Z,1014.74
2018-05-08T03:43:41.966Z,1014.75
2018-05-08T03:44:41.832Z,1014.72
2018-05-08T03:45:41.851Z,1014.75
2018-05-08T03:46:41.828Z,1014.77
2018-05-08T03:47:41.741Z,1014.8
2018-05-08T03:48:41.737Z,1014.76
2018-05-08T03:49:41.846Z,1014.75
2018-05-08T03:50:41.740Z,1014.76
2018-05-08T03:51:41.736Z,1014.73
2018-05-08T03:52:42.079Z,1014.77
2018-05-08T03:53:41.935Z,1014.75
2018-05-08T03:54:41.955Z,1014.77
2018-05-08T03:55:41.941Z,1014.78
2018-05-08T03:56:41.737Z,1014.79
2018-05-08T03:57:41.801Z,1014.76
2018-05-08T03:58:41.857Z,1014.83
2018-05-08T03:59:41.863Z,1014.76
2018-05-08T04:00:41.826Z,1014.8
2018-05-08T04:01:42.094Z,1014.79
2018-05-08T04:02:41.915Z,1014.79
2018-05-08T04:03:41.800Z,1014.8
2018-05-08T04:04:41.791Z,1014.84
2018-05-08T04:05:41.908Z,1014.81
2018-05-08T04:06:41.804Z,1014.85
2018-05-08T04:07:42.025Z,1014.81
2018-05-08T04:08:41.924Z,1014.82
2018-05-08T04:09:41.845Z,1014.82
2018-05-08T04:10:42.004Z,1014.88
2018-05-08T04:11:41.721Z,1014.85
2018-05-08T04:12:41.771Z,1014.86
2018-05-08T04:13:41.893Z,1014.88
2018-05-08T04:14:41.833Z,1014.84
2018-05-08T04:15:41.909Z,1014.82
2018-05-08T04:16:41.795Z,1014.85
2018-05-08T04:17:41.997Z,1014.87
2018-05-08T04:18:41.833Z,1014.85
2018-05-08T04:19:41.847Z,1014.82
2018-05-08T04:20:41.985Z,1014.83
2018-05-08T04:21:41.894Z,1014.84
2018-05-08T04:22:41.877Z,1014.84
2018-05-08T04:23:42.040Z,1014.79
2018-05-08T04:24:41.945Z,1014.85
2018-05-08T04:25:41.826Z,1014.85
2018-05-08T04:26:41.836Z,1014.84
2018-05-08T04:27:41.851Z,1014.84
2018-05-08T04:28:41.859Z,1014.84
2018-05-08T04:29:41.858Z,1014.88
2018-05-08T04:30:41.972Z,1014.91
2018-05-08T04:31:41.812Z,1014.87
2018-05-08T04:32:41.834Z,1014.88
2018-05-08T04:33:41.765Z,1014.88
2018-05-08T04:34:41.902Z,1014.91
2018-05-08T04:35:42.040Z,1014.9
2018-05-08T04:36:42.191Z,1014.89
2018-05-08T04:37:41.932Z,1014.88
2018-05-08T04:38:41.867Z,1014.91
2018-05-08T04:39:41.776Z,1014.91
2018-05-08T04:40:41.834Z,1014.92
2018-05-08T04:41:41.783Z,1014.91
2018-05-08T04:42:41.850Z,1014.93
2018-05-08T04:43:41.963Z,1014.93
2018-05-08T04:44:41.747Z,1014.88
2018-05-08T04:45:41.948Z,1014.91
2018-05-08T04:46:41.903Z,1014.92
2018-05-08T04:47:41.852Z,1014.92
2018-05-08T04:48:41.959Z,1014.92
2018-05-08T04:49:41.797Z,1014.93
2018-05-08T04:50:41.875Z,1014.93
2018-05-08T04:51:41.796Z,1014.95
2018-05-08T04:52:41.855Z,1014.95
2018-05-08T04:53:41.796Z,1014.93
2018-05-08T04:54:41.829Z,1014.95
2018-05-08T04:55:42.108Z,1014.94
2018-05-08T04:56:41.764Z,1015
2018-05-08T04:57:41.979Z,1014.97
2018-05-08T04:58:41.850Z,1014.98
2018-05-08T04:59:41.907Z,1014.97
2018-05-08T05:00:41.840Z,1014.97
2018-05-08T05:01:41.968Z,1014.94
2018-05-08T05:02:41.896Z,1014.94
2018-05-08T05:03:41.996Z,1014.96
2018-05-08T05:04:41.775Z,1014.97
2018-05-08T05:05:41.772Z,1014.98
2018-05-08T05:06:41.945Z,1014.97
2018-05-08T05:07:41.778Z,1015.01
2018-05-08T05:08:41.865Z,1015.02
2018-05-08T05:09:42.075Z,1015.02
2018-05-08T05:10:41.964Z,1015.02
2018-05-08T05:11:41.951Z,1015.02
2018-05-08T05:12:42.004Z,1015.06
2018-05-08T05:13:41.773Z,1015.03
2018-05-08T05:14:41.933Z,1015.01
2018-05-08T05:15:41.833Z,1015.04
2018-05-08T05:16:42.033Z,1015.02
2018-05-08T05:17:41.931Z,1015
2018-05-08T05:18:41.863Z,1014.99
2018-05-08T05:19:41.782Z,1014.99
2018-05-08T05:20:41.841Z,1015.04
2018-05-08T05:21:41.916Z,1015.01
2018-05-08T05:22:41.856Z,1015.02
2018-05-08T05:23:41.840Z,1015.03
2018-05-08T05:24:41.748Z,1015.03
2018-05-08T05:25:41.967Z,1015.03
2018-05-08T05:26:41.731Z,1015.03
2018-05-08T05:27:41.821Z,1014.99
2018-05-08T05:28:41.980Z,1015.02
2018-05-08T05:29:41.953Z,1014.99
2018-05-08T05:30:41.951Z,1014.94
2018-05-08T05:31:41.997Z,1014.97
2018-05-08T05:32:41.908Z,1014.97
2018-05-08T05:33:41.884Z,1014.96
2018-05-08T05:34:41.813Z,1014.96
2018-05-08T05:35:41.738Z,1014.97
2018-05-08T05:36:42.040Z,1014.94
2018-05-08T05:37:41.834Z,1014.92
2018-05-08T05:38:41.792Z,1014.93
2018-05-08T05:39:41.937Z,1014.91
2018-05-08T05:40:41.767Z,1014.92
2018-05-08T05:41:41.787Z,1014.91
2018-05-08T05:42:42.157Z,1014.94
2018-05-08T05:43:41.736Z,1014.86
2018-05-08T05:44:41.890Z,1014.89
2018-05-08T05:45:41.876Z,1014.87
2018-05-08T05:46:41.718Z,1014.85
2018-05-08T05:47:41.728Z,1014.84
2018-05-08T05:48:41.727Z,1014.87
2018-05-08T05:49:41.817Z,1014.83
2018-05-08T05:50:41.711Z,1014.87
2018-05-08T05:51:41.976Z,1014.87
2018-05-08T05:52:41.948Z,1014.87
2018-05-08T05:53:41.812Z,1014.86
2018-05-08T05:54:41.840Z,1014.87
2018-05-08T05:55:41.918Z,1014.86
2018-05-08T05:56:41.765Z,1014.86
2018-05-08T05:57:41.715Z,1014.87
2018-05-08T05:58:41.940Z,1014.92
2018-05-08T05:59:41.847Z,1014.86
2018-05-08T06:00:41.697Z,1014.85
2018-05-08T06:01:41.859Z,1014.85
2018-05-08T06:02:41.809Z,1014.85
2018-05-08T06:03:41.907Z,1014.8
2018-05-08T06:04:41.843Z,1014.81
2018-05-08T06:05:41.981Z,1014.78
2018-05-08T06:06:41.832Z,1014.78
2018-05-08T06:07:41.790Z,1014.75
2018-05-08T06:08:41.699Z,1014.76
2018-05-08T06:09:41.963Z,1014.74
2018-05-08T06:10:41.973Z,1014.79
2018-05-08T06:11:41.827Z,1014.78
2018-05-08T06:12:41.828Z,1014.76
2018-05-08T06:13:41.922Z,1014.75
2018-05-08T06:14:41.731Z,1014.77
2018-05-08T06:15:41.751Z,1014.77
2018-05-08T06:16:41.816Z,1014.79
2018-05-08T06:17:41.854Z,1014.78
2018-05-08T06:18:41.803Z,1014.8
2018-05-08T06:19:41.725Z,1014.82
2018-05-08T06:20:41.808Z,1014.83
2018-05-08T06:21:41.859Z,1014.82
2018-05-08T06:22:41.641Z,1014.83
2018-05-08T06:23:41.895Z,1014.79
2018-05-08T06:24:41.815Z,1014.81
2018-05-08T06:25:41.824Z,1014.8
2018-05-08T06:26:41.780Z,1014.85
2018-05-08T06:27:41.904Z,1014.85
2018-05-08T06:28:41.834Z,1014.89
2018-05-08T06:29:41.807Z,1014.86
2018-05-08T06:30:41.734Z,1014.86
2018-05-08T06:31:41.973Z,1014.9
2018-05-08T06:32:41.688Z,1014.85
2018-05-08T06:33:41.937Z,1014.87
2018-05-08T06:34:41.939Z,1014.86
2018-05-08T06:35:41.975Z,1014.88
2018-05-08T06:36:41.760Z,1014.84
2018-05-08T06:37:41.925Z,1014.81
2018-05-08T06:38:41.888Z,1014.82
2018-05-08T06:39:41.859Z,1014.81
2018-05-08T06:40:41.848Z,1014.82
2018-05-08T06:41:41.718Z,1014.87
2018-05-08T06:42:41.905Z,1014.85
2018-05-08T06:43:41.817Z,1014.87
2018-05-08T06:44:41.915Z,1014.83
2018-05-08T06:45:41.723Z,1014.82
2018-05-08T06:46:41.951Z,1014.84
2018-05-08T06:47:41.836Z,1014.86
2018-05-08T06:48:41.784Z,1014.85
2018-05-08T06:49:41.803Z,1014.83
2018-05-08T06:50:41.689Z,1014.88
2018-05-08T06:51:41.838Z,1014.88
2018-05-08T06:52:41.865Z,1014.81
2018-05-08T06:53:41.951Z,1014.9
2018-05-08T06:54:41.953Z,1014.85
2018-05-08T06:55:41.794Z,1014.86
2018-05-08T06:56:41.718Z,1014.88
2018-05-08T06:57:41.813Z,1014.87
2018-05-08T06:58:41.889Z,1014.88
2018-05-08T06:59:41.688Z,1014.9
2018-05-08T07:00:41.849Z,1014.87
2018-05-08T07:01:41.805Z,1014.88
2018-05-08T07:02:41.911Z,1014.88
2018-05-08T07:03:41.825Z,1014.93
2018-05-08T07:04:41.908Z,1014.87
2018-05-08T07:05:41.770Z,1014.9
2018-05-08T07:06:41.876Z,1014.93
2018-05-08T07:07:41.902Z,1014.85
2018-05-08T07:08:41.751Z,1014.86
2018-05-08T07:09:41.792Z,1014.92
2018-05-08T07:11:13.634Z,1014.89
2018-05-08T07:11:42.027Z,1014.84
2018-05-08T07:12:41.902Z,1014.85
2018-05-08T07:13:41.877Z,1014.86
2018-05-08T07:14:41.881Z,1014.86
2018-05-08T07:15:42.181Z,1014.88
2018-05-08T07:16:41.822Z,1014.83
2018-05-08T07:17:41.841Z,1014.86
2018-05-08T07:18:41.870Z,1014.78
2018-05-08T07:19:41.770Z,1014.82
2018-05-08T07:20:51.786Z,1014.77
2018-05-08T07:21:41.892Z,1014.81
2018-05-08T07:22:41.844Z,1014.81
2018-05-08T07:23:41.774Z,1014.75
2018-05-08T07:24:41.733Z,1014.79
2018-05-08T07:25:41.858Z,1014.76
2018-05-08T07:26:42.095Z,1014.72
2018-05-08T07:27:41.761Z,1014.72
2018-05-08T07:28:41.805Z,1014.77
2018-05-08T07:29:41.803Z,1014.79
2018-05-08T07:30:41.869Z,1014.77
2018-05-08T07:31:41.774Z,1014.75
2018-05-08T07:32:41.730Z,1014.75
2018-05-08T07:33:41.933Z,1014.75
2018-05-08T07:34:41.880Z,1014.78
2018-05-08T07:35:41.861Z,1014.78
2018-05-08T07:36:41.668Z,1014.77
2018-05-08T07:37:41.803Z,1014.77
2018-05-08T07:38:41.638Z,1014.78
2018-05-08T07:39:41.754Z,1014.75
2018-05-08T07:40:41.891Z,1014.73
2018-05-08T07:41:41.849Z,1014.73
2018-05-08T07:42:41.830Z,1014.76
2018-05-08T07:43:41.849Z,1014.74
2018-05-08T07:44:41.843Z,1014.75
2018-05-08T07:45:41.923Z,1014.76
2018-05-08T07:46:41.753Z,1014.8
2018-05-08T07:47:41.832Z,1014.7
2018-05-08T07:48:41.913Z,1014.75
2018-05-08T07:49:41.862Z,1014.75
2018-05-08T07:50:42.177Z,1014.72
2018-05-08T07:51:41.925Z,1014.72
2018-05-08T07:52:41.753Z,1014.75
2018-05-08T07:53:41.794Z,1014.73
2018-05-08T07:54:41.902Z,1014.77
2018-05-08T07:55:41.926Z,1014.71
2018-05-08T07:56:42.001Z,1014.73
2018-05-08T07:57:41.873Z,1014.72
2018-05-08T07:58:41.810Z,1014.74
2018-05-08T07:59:41.695Z,1014.71
2018-05-08T08:00:41.917Z,1014.66
2018-05-08T08:01:41.935Z,1014.63
2018-05-08T08:02:41.898Z,1014.62
2018-05-08T08:03:41.752Z,1014.63
2018-05-08T08:04:41.781Z,1014.61
2018-05-08T08:05:41.765Z,1014.58
2018-05-08T08:06:41.774Z,1014.62
2018-05-08T08:07:41.880Z,1014.65
2018-05-08T08:08:41.745Z,1014.64
2018-05-08T08:09:41.895Z,1014.62
2018-05-08T08:10:41.933Z,1014.63
2018-05-08T08:11:41.784Z,1014.63
2018-05-08T08:12:41.849Z,1014.6
2018-05-08T08:13:41.718Z,1014.59
2018-05-08T08:14:41.701Z,1014.58
2018-05-08T08:15:41.932Z,1014.56
2018-05-08T08:16:41.978Z,1014.57
2018-05-08T08:17:41.825Z,1014.59
2018-05-08T08:18:41.738Z,1014.59
2018-05-08T08:19:41.705Z,1014.6
2018-05-08T08:20:41.777Z,1014.55
2018-05-08T08:21:41.739Z,1014.54
2018-05-08T08:22:41.878Z,1014.56
2018-05-08T08:23:41.767Z,1014.52
2018-05-08T08:24:41.885Z,1014.51
2018-05-08T08:25:41.771Z,1014.51
2018-05-08T08:26:41.868Z,1014.54
2018-05-08T08:27:41.876Z,1014.52
2018-05-08T08:28:41.877Z,1014.56
2018-05-08T08:29:41.928Z,1014.49
2018-05-08T08:30:41.687Z,1014.52
2018-05-08T08:31:42.050Z,1014.51
2018-05-08T08:32:41.811Z,1014.5
2018-05-08T08:33:42.053Z,1014.44
2018-05-08T08:34:41.830Z,1014.46
2018-05-08T08:35:41.779Z,1014.44
2018-05-08T08:36:41.789Z,1014.47
2018-05-08T08:37:41.946Z,1014.46
2018-05-08T08:38:41.811Z,1014.42
2018-05-08T08:39:41.819Z,1014.39
2018-05-08T08:40:41.670Z,1014.39
2018-05-08T08:41:41.711Z,1014.4
2018-05-08T08:42:41.696Z,1014.38
2018-05-08T08:43:41.901Z,1014.38
2018-05-08T08:44:41.909Z,1014.34
2018-05-08T08:45:41.925Z,1014.29
2018-05-08T08:46:41.744Z,1014.34
2018-05-08T08:47:42.099Z,1014.35
2018-05-08T08:48:41.862Z,1014.39
2018-05-08T08:49:41.749Z,1014.36
2018-05-08T08:50:42.065Z,1014.41
2018-05-08T08:51:41.711Z,1014.37
2018-05-08T08:52:41.694Z,1014.33
2018-05-08T08:53:41.760Z,1014.34
2018-05-08T08:54:41.964Z,1014.37
2018-05-08T08:55:41.758Z,1014.33
2018-05-08T08:56:41.772Z,1014.36
2018-05-08T08:57:41.675Z,1014.35
2018-05-08T08:58:41.823Z,1014.4
2018-05-08T08:59:41.866Z,1014.34
2018-05-08T09:00:41.729Z,1014.36
2018-05-08T09:01:42.061Z,1014.34
2018-05-08T09:02:41.728Z,1014.4
2018-05-08T09:03:41.820Z,1014.37
2018-05-08T09:04:41.743Z,1014.34
2018-05-08T09:05:41.892Z,1014.34
2018-05-08T09:06:41.746Z,1014.29
2018-05-08T09:07:41.759Z,1014.27
2018-05-08T09:08:41.780Z,1014.26
2018-05-08T09:09:41.795Z,1014.26
2018-05-08T09:10:41.985Z,1014.25
2018-05-08T09:11:41.897Z,1014.3
2018-05-08T09:12:41.905Z,1014.27
2018-05-08T09:13:41.911Z,1014.31
2018-05-08T09:14:41.724Z,1014.28
2018-05-08T09:15:41.803Z,1014.2
2018-05-08T09:16:41.936Z,1014.24
2018-05-08T09:17:41.837Z,1014.24
2018-05-08T09:18:41.696Z,1014.22
2018-05-08T09:19:41.962Z,1014.19
2018-05-08T09:20:41.762Z,1014.2
2018-05-08T09:21:41.740Z,1014.2
2018-05-08T09:22:41.701Z,1014.18
2018-05-08T09:23:41.849Z,1014.15
2018-05-08T09:24:41.762Z,1014.14
2018-05-08T09:25:41.726Z,1014.12
2018-05-08T09:26:41.764Z,1014.11
2018-05-08T09:27:41.933Z,1014.09
2018-05-08T09:28:41.712Z,1014.04
2018-05-08T09:29:41.807Z,1014.09
2018-05-08T09:30:41.758Z,1014.04
2018-05-08T09:31:41.641Z,1014.06
2018-05-08T09:32:42.058Z,1014.06
2018-05-08T09:33:41.798Z,1014.04
2018-05-08T09:34:41.848Z,1014
2018-05-08T09:35:41.907Z,1013.97
2018-05-08T09:36:41.668Z,1013.99
2018-05-08T09:37:41.845Z,1013.95
2018-05-08T09:38:41.923Z,1013.9
2018-05-08T09:39:41.710Z,1013.9
2018-05-08T09:40:41.917Z,1013.92
2018-05-08T09:41:41.728Z,1013.93
2018-05-08T09:42:41.930Z,1013.86
2018-05-08T09:43:41.717Z,1013.85
2018-05-08T09:44:41.788Z,1013.86
2018-05-08T09:45:41.837Z,1013.82
2018-05-08T09:46:41.836Z,1013.82
2018-05-08T09:47:41.714Z,1013.8
2018-05-08T09:48:41.922Z,1013.83
2018-05-08T09:49:41.786Z,1013.86
2018-05-08T09:50:41.713Z,1013.79
2018-05-08T09:51:42.620Z,1013.75
2018-05-08T09:52:42.495Z,1013.81
2018-05-08T09:53:42.327Z,1013.77
2018-05-08T09:54:42.318Z,1013.72
2018-05-08T09:55:42.376Z,1013.7
2018-05-08T09:56:42.442Z,1013.69
2018-05-08T09:57:42.472Z,1013.68
2018-05-08T09:58:42.351Z,1013.67
2018-05-08T09:59:42.487Z,1013.65
2018-05-08T10:00:42.560Z,1013.65
2018-05-08T10:01:42.599Z,1013.67
2018-05-08T10:02:42.530Z,1013.68
2018-05-08T10:03:42.498Z,1013.63
2018-05-08T10:04:42.369Z,1013.55
2018-05-08T10:05:42.462Z,1013.62
2018-05-08T10:06:43.444Z,1013.58
2018-05-08T10:07:42.431Z,1013.63
2018-05-08T10:08:42.502Z,1013.62
2018-05-08T10:09:42.241Z,1013.56
2018-05-08T10:10:42.415Z,1013.54
2018-05-08T10:11:42.536Z,1013.55
2018-05-08T10:12:42.423Z,1013.55
2018-05-08T10:13:42.401Z,1013.54
2018-05-08T10:14:42.613Z,1013.55
2018-05-08T10:15:42.504Z,1013.5
2018-05-08T10:16:42.310Z,1013.5
2018-05-08T10:17:42.483Z,1013.49
2018-05-08T10:18:42.263Z,1013.47
2018-05-08T10:19:42.342Z,1013.47
2018-05-08T10:20:42.518Z,1013.45
2018-05-08T10:21:42.520Z,1013.42
2018-05-08T10:22:42.487Z,1013.41
2018-05-08T10:23:42.464Z,1013.38
2018-05-08T10:24:42.569Z,1013.35
2018-05-08T10:25:42.600Z,1013.37
2018-05-08T10:26:42.499Z,1013.32
2018-05-08T10:27:42.654Z,1013.26
2018-05-08T10:28:42.674Z,1013.32
2018-05-08T10:29:42.767Z,1013.29
2018-05-08T10:30:42.459Z,1013.35
2018-05-08T10:31:42.629Z,1013.29
2018-05-08T10:32:42.446Z,1013.23
2018-05-08T10:33:42.493Z,1013.2
2018-05-08T10:34:42.507Z,1013.18
2018-05-08T10:35:42.294Z,1013.17
2018-05-08T10:36:42.584Z,1013.17
2018-05-08T10:37:42.549Z,1013.26
2018-05-08T10:38:42.243Z,1013.17
2018-05-08T10:39:42.565Z,1013.17
2018-05-08T10:40:42.590Z,1013.15
2018-05-08T10:41:42.291Z,1013.11
2018-05-08T10:42:42.517Z,1013.09
2018-05-08T10:43:42.417Z,1013.1
2018-05-08T10:44:42.518Z,1013.06
2018-05-08T10:45:42.560Z,1013.08
2018-05-08T10:46:42.480Z,1013.07
2018-05-08T10:47:42.330Z,1013.03
2018-05-08T10:48:42.411Z,1013.01
2018-05-08T10:49:42.614Z,1013.01
2018-05-08T10:50:41.699Z,1013.01
2018-05-08T10:51:42.619Z,1012.93
2018-05-08T10:52:42.661Z,1012.89
2018-05-08T10:53:41.621Z,1012.87
2018-05-08T10:54:42.574Z,1012.93
2018-05-08T10:55:42.815Z,1012.85
2018-05-08T10:56:42.614Z,1012.81
2018-05-08T10:57:41.674Z,1012.77
2018-05-08T10:58:41.942Z,1012.78
2018-05-08T10:59:42.629Z,1012.75
2018-05-08T11:00:41.651Z,1012.64
2018-05-08T11:01:42.480Z,1012.7
2018-05-08T11:02:41.617Z,1012.73
2018-05-08T11:03:42.607Z,1012.7
2018-05-08T11:04:42.458Z,1012.68
2018-05-08T11:05:41.679Z,1012.64
2018-05-08T11:06:41.665Z,1012.64
2018-05-08T11:07:41.727Z,1012.69
2018-05-08T11:08:42.596Z,1012.66
2018-05-08T11:09:41.680Z,1012.61
2018-05-08T11:10:42.254Z,1012.67
2018-05-08T11:11:41.638Z,1012.55
2018-05-08T11:12:42.561Z,1012.58
2018-05-08T11:13:42.168Z,1012.51
2018-05-08T11:14:42.763Z,1012.49
2018-05-08T11:15:42.316Z,1012.53
2018-05-08T11:16:41.684Z,1012.49
2018-05-08T11:17:42.681Z,1012.53
2018-05-08T11:18:42.735Z,1012.56
2018-05-08T11:19:43.005Z,1012.5
2018-05-08T11:20:41.725Z,1012.53
2018-05-08T11:21:42.362Z,1012.48
2018-05-08T11:22:41.702Z,1012.43
2018-05-08T11:23:41.702Z,1012.38
2018-05-08T11:24:42.746Z,1012.38
2018-05-08T11:25:41.726Z,1012.38
2018-05-08T11:26:42.737Z,1012.33
2018-05-08T11:27:41.757Z,1012.36
2018-05-08T11:28:42.224Z,1012.36
2018-05-08T11:29:42.202Z,1012.36
2018-05-08T11:30:41.941Z,1012.34
2018-05-08T11:31:42.239Z,1012.35
2018-05-08T11:32:41.865Z,1012.36
2018-05-08T11:33:42.204Z,1012.32
2018-05-08T11:34:42.048Z,1012.31
2018-05-08T11:35:42.418Z,1012.3
2018-05-08T11:36:41.658Z,1012.31
2018-05-08T11:37:41.622Z,1012.22
2018-05-08T11:38:42.726Z,1012.22
2018-05-08T11:39:41.716Z,1012.2
2018-05-08T11:40:41.758Z,1012.18
2018-05-08T11:41:41.724Z,1012.15
2018-05-08T11:42:42.545Z,1012.1
2018-05-08T11:43:42.396Z,1012.11
2018-05-08T11:44:41.826Z,1012.1
2018-05-08T11:45:41.743Z,1012.14
2018-05-08T11:46:41.631Z,1012.11
2018-05-08T11:47:41.771Z,1012.12
2018-05-08T11:48:42.330Z,1012.16
2018-05-08T11:49:41.702Z,1012.11
2018-05-08T11:50:42.273Z,1012.06
2018-05-08T11:51:41.876Z,1012.04
2018-05-08T11:52:41.984Z,1011.98
2018-05-08T11:53:41.866Z,1012.01
2018-05-08T11:54:41.972Z,1012.02
2018-05-08T11:55:41.979Z,1012.05
2018-05-08T11:56:41.860Z,1012.03
2018-05-08T11:57:41.917Z,1011.97
2018-05-08T11:58:41.863Z,1011.94
2018-05-08T11:59:42.000Z,1011.93
2018-05-08T12:00:41.962Z,1011.93
2018-05-08T12:01:41.997Z,1011.91
2018-05-08T12:02:42.502Z,1011.91
2018-05-08T12:03:41.990Z,1011.84
2018-05-08T12:04:44.472Z,1011.87
2018-05-08T12:05:41.863Z,1011.86
2018-05-08T12:06:42.237Z,1011.88
2018-05-08T12:07:44.252Z,1011.87